Forside
METAR-TAF:

METAR-TAF

Lufthavne :

Albertus Airport

Freeport, Illinois, USA

Breddekreds: 42-14-47N, længdekreds: 089-34-56W, højde: 262 m

Aktuelle vejr

Denne rapport blev lavet for 33 minutter siden, kl. 08:35 UTC
Vind stille
Temperatur 20°C
Fugtighed 100%
Tryk 1013 hPa
Sigt: 6.4 km
skyfri
dis

METAR: KFEP 090835Z AUTO 00000KT 4SM BR CLR 20/20 A2990 RMK AO2 T02030203

Tid: 04:08 (09:08 UTC)


TAF: fraværende

Vejrobservationer og prognoser fra mere end 4000 lufthavne (METAR og TAF).

De gule og røde prikker repræsenterer de meteorologiske stationer.

Flyt musen over at se navnet på stationen.

Så klik over at se vejr observationer og prognoser.

At skifte det kort: Klik på de grønne knapper med et sort kors for at zoome ind; på den grønne knap med en bindestreg for at zoome ud; eller på de grønne pile for tilstødende kort.


METAR-TAF: